Time;durP1;ratioP1;P1;durP2;ratioP2;P2;SDS_P1;SDS_P2;PMS_P1;PMS_P2;Temp;Humidity;BMP_temperature;BMP_pressure;BME280_temperature;BME280_humidity;BME280_pressure;Samples;Min_cycle;Max_cycle;Signal;HPM_P1;HPM_P2
2023/05/10 00:01:03;;;;;;;62.65;28.05;;;;;;;11.08;100.00;100784.03;5084027;28;20039;-68
2023/05/10 00:03:28;;;;;;;61.65;29.95;;;;;;;11.06;100.00;100786.69;5082691;28;20040;-72
2023/05/10 00:05:54;;;;;;;63.83;29.65;;;;;;;11.06;100.00;100786.69;5085070;28;20038;-72
2023/05/10 00:08:19;;;;;;;61.35;29.42;;;;;;;11.05;100.00;100790.19;5082386;28;20031;-72
2023/05/10 00:10:45;;;;;;;59.70;29.45;;;;;;;11.04;100.00;100788.47;5085160;28;20067;-72
2023/05/10 00:13:10;;;;;;;77.03;32.25;;;;;;;11.04;100.00;100783.16;5082554;28;20032;-72
2023/05/10 00:15:35;;;;;;;74.43;33.03;;;;;;;11.03;100.00;100783.16;5083787;28;20031;-72
2023/05/10 00:18:01;;;;;;;75.00;33.85;;;;;;;11.04;100.00;100795.50;5084037;28;20032;-72
2023/05/10 00:20:26;;;;;;;72.25;34.55;;;;;;;11.00;100.00;100791.97;5082232;28;20108;-72
2023/05/10 00:22:52;;;;;;;82.53;35.15;;;;;;;10.98;100.00;100791.97;5085205;28;20024;-72
2023/05/10 00:25:17;;;;;;;75.53;34.97;;;;;;;10.93;100.00;100791.06;5077357;28;20052;-72
2023/05/10 00:27:43;;;;;;;77.65;36.67;;;;;;;10.90;100.00;100784.91;5084578;28;20028;-73
2023/05/10 00:30:08;;;;;;;83.03;35.97;;;;;;;10.88;100.00;100789.28;5082990;28;20020;-73
2023/05/10 00:32:34;;;;;;;80.97;34.88;;;;;;;10.84;100.00;100792.84;5082818;28;20028;-73
2023/05/10 00:34:59;;;;;;;82.38;35.80;;;;;;;10.82;100.00;100788.41;5084037;28;20035;-73
2023/05/10 00:37:24;;;;;;;87.05;35.65;;;;;;;10.82;100.00;100795.47;5081344;28;20499;-73
2023/05/10 00:39:50;;;;;;;82.50;36.42;;;;;;;10.85;100.00;100789.28;5084806;28;20032;-73
2023/05/10 00:42:15;;;;;;;94.82;36.60;;;;;;;10.85;100.00;100792.84;5081712;28;20020;-73
2023/05/10 00:44:41;;;;;;;86.25;36.50;;;;;;;10.85;100.00;100795.47;5083687;28;20395;-67
2023/05/10 00:47:06;;;;;;;92.47;37.92;;;;;;;10.88;100.00;100789.28;5064838;28;20020;-68
2023/05/10 00:49:32;;;;;;;88.63;38.53;;;;;;;10.91;100.00;100786.69;5082487;28;20024;-67
2023/05/10 00:51:58;;;;;;;95.90;40.47;;;;;;;10.94;100.00;100787.56;5083877;28;20032;-68
2023/05/10 00:54:23;;;;;;;103.22;40.65;;;;;;;10.97;100.00;100789.31;5081332;28;20479;-67
2023/05/10 00:56:49;;;;;;;102.38;41.28;;;;;;;10.97;100.00;100789.31;5084816;28;20098;-68
2023/05/10 00:59:18;;;;;;;98.75;41.15;;;;;;;10.95;100.00;100785.78;5081113;28;20031;-70
2023/05/10 01:01:47;;;;;;;104.75;40.63;;;;;;;10.93;100.00;100784.91;5083809;28;20028;-68
2023/05/10 01:04:13;;;;;;;106.95;40.67;;;;;;;10.92;100.00;100780.47;5071992;28;20039;-67
2023/05/10 01:06:42;;;;;;;107.22;40.40;;;;;;;10.93;100.00;100780.47;5079802;28;20032;-67
2023/05/10 01:09:08;;;;;;;121.72;41.63;;;;;;;10.97;100.00;100776.97;5081106;28;20025;-68
2023/05/10 01:11:35;;;;;;;124.07;41.50;;;;;;;10.98;100.00;100786.69;5079104;28;20025;-68
2023/05/10 01:14:01;;;;;;;112.55;42.22;;;;;;;11.00;100.00;100781.41;5077053;28;20056;-68
2023/05/10 01:16:29;;;;;;;115.30;43.33;;;;;;;11.03;100.00;100776.09;5083932;28;20028;-67
2023/05/10 01:18:55;;;;;;;118.80;42.80;;;;;;;11.06;100.00;100777.88;5081464;28;20036;-67
2023/05/10 01:21:38;;;;;;;136.80;45.55;;;;;;;11.09;100.00;100784.03;5082909;28;20028;-67
2023/05/10 01:24:21;;;;;;;132.82;45.13;;;;;;;11.11;100.00;100778.75;5077381;28;20391;-69
2023/05/10 01:26:49;;;;;;;;;;;;;;;11.14;100.00;100778.78;5083172;28;20398;-68
2023/05/10 01:29:33;;;;;;;178.20;50.67;;;;;;;11.16;100.00;100772.59;5081979;28;20003;-69
2023/05/10 01:32:16;;;;;;;179.80;52.30;;;;;;;11.16;100.00;100772.59;5080858;28;20024;-68
2023/05/10 01:35:04;;;;;;;175.10;51.20;;;;;;;11.18;100.00;100779.66;5079094;28;20112;-68
2023/05/10 01:38:03;;;;;;;166.45;51.65;;;;;;;11.19;100.00;100778.78;5076358;28;20036;-68
2023/05/10 01:40:47;;;;;;;169.52;52.38;;;;;;;11.21;100.00;100774.34;5083852;28;20107;-69
2023/05/10 01:43:22;;;;;;;171.00;52.10;;;;;;;11.22;100.00;100782.28;5079684;28;20043;-68
2023/05/10 01:46:00;;;;;;;189.63;52.13;;;;;;;11.23;100.00;100778.78;5082002;28;20107;-68
2023/05/10 01:48:28;;;;;;;174.80;52.55;;;;;;;11.26;100.00;100783.19;5083512;28;20097;-68
2023/05/10 01:50:55;;;;;;;174.18;52.25;;;;;;;11.26;100.00;100777.91;5063564;28;20486;-68
2023/05/10 01:53:22;;;;;;;179.88;52.28;;;;;;;11.24;100.00;100788.50;5082738;28;20032;-67
2023/05/10 01:55:50;;;;;;;198.02;53.22;;;;;;;11.21;100.00;100779.66;5064052;28;20600;-68
2023/05/10 01:58:30;;;;;;;163.07;50.72;;;;;;;11.19;100.00;100786.72;5082204;28;20437;-67
2023/05/10 02:00:58;;;;;;;163.07;51.13;;;;;;;11.19;100.00;100782.28;5080917;28;20052;-67
2023/05/10 02:03:25;;;;;;;156.60;51.53;;;;;;;11.20;100.00;100788.47;5082869;28;20041;-68
2023/05/10 02:05:53;;;;;;;152.75;50.83;;;;;;;11.21;100.00;100790.22;5081545;28;20028;-68
2023/05/10 02:08:20;;;;;;;161.52;51.13;;;;;;;11.23;100.00;100789.38;5082462;28;20020;-67
2023/05/10 02:10:48;;;;;;;161.88;52.10;;;;;;;11.23;100.00;100791.13;5082117;28;20109;-68
2023/05/10 02:13:16;;;;;;;160.30;50.47;;;;;;;11.24;100.00;100795.53;5084658;28;20024;-67
2023/05/10 02:15:43;;;;;;;157.02;53.42;;;;;;;11.22;100.00;100798.16;5086557;28;20039;-67
2023/05/10 02:18:10;;;;;;;161.77;52.85;;;;;;;11.22;100.00;100799.94;5084409;28;20024;-67
2023/05/10 02:20:37;;;;;;;178.93;56.20;;;;;;;11.23;100.00;100796.44;5087259;28;20035;-68
2023/05/10 02:23:03;;;;;;;181.27;58.05;;;;;;;11.21;100.00;100808.75;5084006;28;20021;-67
2023/05/10 02:25:30;;;;;;;194.32;61.70;;;;;;;11.19;100.00;100808.75;5087127;28;20038;-67
2023/05/10 02:27:57;;;;;;;198.70;63.17;;;;;;;11.15;100.00;100807.88;5084391;28;20506;-67
2023/05/10 02:30:23;;;;;;;190.48;62.67;;;;;;;11.13;100.00;100809.63;5086083;28;20082;-67
2023/05/10 02:32:50;;;;;;;184.05;61.30;;;;;;;11.09;100.00;100799.91;5073321;28;20111;-67
2023/05/10 02:35:16;;;;;;;174.07;60.47;;;;;;;11.05;100.00;100800.78;5082701;28;20059;-69
2023/05/10 02:37:43;;;;;;;177.93;62.40;;;;;;;11.06;100.00;100801.69;5087113;28;20036;-67
2023/05/10 02:40:11;;;;;;;179.07;59.80;;;;;;;11.07;100.00;100803.47;5081061;28;20387;-67
2023/05/10 02:42:38;;;;;;;173.13;61.42;;;;;;;11.08;100.00;100808.75;5083790;28;20028;-66
2023/05/10 02:45:26;;;;;;;188.18;63.08;;;;;;;11.11;100.00;100810.50;5086395;28;20063;-66
2023/05/10 02:47:51;;;;;;;200.45;64.28;;;;;;;11.12;100.00;100810.50;5082769;28;20082;-67
2023/05/10 02:50:18;;;;;;;199.32;63.70;;;;;;;11.11;100.00;100808.75;5086359;28;20379;-69
2023/05/10 02:52:47;;;;;;;197.73;63.28;;;;;;;11.12;100.00;100807.84;5078221;28;20448;-68
2023/05/10 02:55:15;;;;;;;205.75;65.90;;;;;;;11.11;100.00;100807.84;5083336;28;20126;-66
2023/05/10 02:58:02;;;;;;;189.15;65.35;;;;;;;11.08;100.00;100807.84;5081448;28;20031;-67
2023/05/10 03:00:27;;;;;;;198.95;65.45;;;;;;;11.09;100.00;100810.50;5076742;28;20039;-67
2023/05/10 03:02:53;;;;;;;179.65;61.38;;;;;;;11.09;100.00;100806.97;5083146;28;20484;-71
2023/05/10 03:05:19;;;;;;;180.27;61.30;;;;;;;11.11;100.00;100811.41;5086680;28;20479;-68
2023/05/10 03:07:45;;;;;;;186.68;60.63;;;;;;;11.12;100.00;100807.84;5084254;28;20077;-67
2023/05/10 03:10:11;;;;;;;173.30;59.20;;;;;;;11.12;100.00;100815.78;5085080;28;20074;-67
2023/05/10 03:12:58;;;;;;;175.15;59.60;;;;;;;11.13;100.00;100804.34;5085067;28;20538;-66
2023/05/10 03:15:38;;;;;;;182.48;60.35;;;;;;;11.14;100.00;100811.41;5079491;28;20046;-67
2023/05/10 03:18:12;;;;;;;166.48;58.83;;;;;;;11.16;100.00;100817.56;5082160;28;20119;-67
2023/05/10 03:20:49;;;;;;;157.90;57.17;;;;;;;11.17;100.00;100813.19;5084567;28;20016;-67
2023/05/10 03:23:17;;;;;;;156.18;56.53;;;;;;;11.18;100.00;100811.41;5085073;28;20032;-67
2023/05/10 03:25:43;;;;;;;155.98;54.33;;;;;;;11.18;100.00;100822.84;5083708;28;20103;-67
2023/05/10 03:28:09;;;;;;;160.43;55.42;;;;;;;11.19;100.00;100827.28;5085097;28;20067;-68
2023/05/10 03:30:36;;;;;;;151.93;55.10;;;;;;;11.19;100.00;100824.63;5084594;28;20052;-67
2023/05/10 03:33:07;;;;;;;142.60;53.08;;;;;;;11.18;100.00;100827.28;5083739;28;20033;-67
2023/05/10 03:35:33;;;;;;;137.70;52.17;;;;;;;11.19;100.00;100823.75;5085234;28;20032;-67
2023/05/10 03:37:58;;;;;;;133.85;51.72;;;;;;;11.18;100.00;100827.28;5082849;28;20552;-68
2023/05/10 03:40:24;;;;;;;137.18;50.83;;;;;;;11.16;100.00;100830.78;5085979;28;20024;-67
2023/05/10 03:42:50;;;;;;;131.93;50.05;;;;;;;11.16;100.00;100836.09;5082515;28;20033;-67
2023/05/10 03:45:15;;;;;;;134.07;49.83;;;;;;;11.15;100.00;100829.06;5085126;28;20115;-69
2023/05/10 03:47:41;;;;;;;133.68;50.85;;;;;;;11.13;100.00;100832.56;5083574;28;20093;-68
2023/05/10 03:50:07;;;;;;;130.02;50.33;;;;;;;11.13;100.00;100830.78;5083840;28;20029;-68
2023/05/10 03:52:32;;;;;;;129.20;50.22;;;;;;;11.13;100.00;100832.56;5084636;28;20031;-67
2023/05/10 03:54:58;;;;;;;130.70;50.45;;;;;;;11.12;100.00;100834.31;5082608;28;20047;-68
2023/05/10 03:57:23;;;;;;;140.70;49.47;;;;;;;11.15;100.00;100838.72;5085786;28;20025;-67
2023/05/10 03:59:48;;;;;;;135.20;49.78;;;;;;;11.13;100.00;100835.22;5082164;28;20056;-68
2023/05/10 04:02:14;;;;;;;129.00;47.67;;;;;;;11.12;100.00;100839.59;5084639;28;20162;-68
2023/05/10 04:04:39;;;;;;;139.38;50.67;;;;;;;11.13;100.00;100841.38;5083447;28;20036;-67
2023/05/10 04:07:05;;;;;;;152.65;53.15;;;;;;;11.09;100.00;100839.59;5083237;28;20025;-68
2023/05/10 04:09:30;;;;;;;151.25;52.22;;;;;;;11.11;100.00;100840.50;5084806;28;20040;-68
2023/05/10 04:11:56;;;;;;;160.35;55.83;;;;;;;11.10;100.00;100841.38;5081882;28;20024;-67
2023/05/10 04:14:21;;;;;;;182.07;59.03;;;;;;;11.08;100.00;100848.44;5085248;28;20028;-68
2023/05/10 04:16:46;;;;;;;179.85;60.60;;;;;;;11.07;100.00;100848.44;5082370;28;20063;-68
2023/05/10 04:19:12;;;;;;;201.68;62.78;;;;;;;11.06;100.00;100849.31;5084035;28;20075;-67
2023/05/10 04:21:37;;;;;;;196.15;63.65;;;;;;;10.99;100.00;100849.28;5083304;28;20071;-67
2023/05/10 04:24:03;;;;;;;209.05;65.32;;;;;;;10.98;100.00;100838.72;5082727;28;20099;-66
2023/05/10 04:26:28;;;;;;;200.93;65.43;;;;;;;10.95;100.00;100843.97;5084483;28;20028;-67
2023/05/10 04:28:53;;;;;;;158.48;53.22;;;;;;;10.90;100.00;100843.09;5063581;28;20036;-69
2023/05/10 04:31:19;;;;;;;136.60;53.35;;;;;;;10.83;100.00;100844.81;5084834;28;20064;-67
2023/05/10 04:33:44;;;;;;;117.75;49.78;;;;;;;10.82;100.00;100835.13;5082305;28;20054;-66
2023/05/10 04:36:10;;;;;;;106.60;43.85;;;;;;;10.76;100.00;100843.94;5082880;28;20086;-67
2023/05/10 04:38:35;;;;;;;94.35;42.47;;;;;;;10.66;100.00;100843.88;5083266;28;20392;-66
2023/05/10 04:41:05;;;;;;;84.30;40.75;;;;;;;10.58;100.00;100849.13;5082111;28;20077;-67
2023/05/10 04:43:30;;;;;;;75.15;37.28;;;;;;;10.55;100.00;100836.78;5083890;28;20539;-66
2023/05/10 04:45:59;;;;;;;75.00;36.05;;;;;;;10.52;100.00;100847.34;5081380;28;20104;-68
2023/05/10 04:48:24;;;;;;;71.90;36.38;;;;;;;10.54;100.00;100844.72;5084607;28;20039;-67
2023/05/10 04:50:49;;;;;;;68.80;34.00;;;;;;;10.55;100.00;100846.47;5081099;28;20028;-67
2023/05/10 04:53:15;;;;;;;61.50;32.28;;;;;;;10.51;100.00;100842.94;5083998;28;20156;-66
2023/05/10 04:55:40;;;;;;;60.35;32.85;;;;;;;10.49;100.00;100854.38;5082476;28;20016;-67
2023/05/10 04:58:05;;;;;;;64.43;32.80;;;;;;;10.49;100.00;100843.81;5082739;28;20029;-66
2023/05/10 05:00:31;;;;;;;62.35;33.83;;;;;;;10.50;100.00;100846.47;5083985;28;20482;-67
2023/05/10 05:02:57;;;;;;;62.47;32.97;;;;;;;10.52;100.00;100851.75;5080888;28;20032;-67
2023/05/10 05:05:22;;;;;;;62.85;33.20;;;;;;;10.49;100.00;100854.38;5084644;28;20024;-67
2023/05/10 05:07:47;;;;;;;59.50;31.90;;;;;;;10.53;100.00;100848.22;5081170;28;20020;-66
2023/05/10 05:10:13;;;;;;;59.78;33.95;;;;;;;10.51;100.00;100855.28;5083067;28;20388;-67
2023/05/10 05:12:38;;;;;;;63.28;32.58;;;;;;;10.58;100.00;100850.00;5082857;28;20467;-67
2023/05/10 05:15:04;;;;;;;61.25;33.03;;;;;;;10.61;100.00;100849.16;5081776;28;20427;-66
2023/05/10 05:17:32;;;;;;;64.03;34.03;;;;;;;10.59;100.00;100858.84;5083994;28;20036;-66
2023/05/10 05:19:57;;;;;;;61.25;32.88;;;;;;;10.65;100.00;100858.88;5081106;28;20025;-67
2023/05/10 05:22:27;;;;;;;58.38;33.22;;;;;;;10.71;100.00;100860.66;5084029;28;20032;-73
2023/05/10 05:24:57;;;;;;;57.25;32.28;;;;;;;10.72;100.00;100867.72;5076769;28;20036;-73
2023/05/10 05:27:25;;;;;;;57.83;32.42;;;;;;;10.64;100.00;100862.38;5076933;28;20021;-73
2023/05/10 05:29:53;;;;;;;56.63;31.92;;;;;;;10.61;100.00;100860.59;5084025;28;20028;-74
2023/05/10 05:32:19;;;;;;;58.80;33.53;;;;;;;10.68;100.00;100864.16;5080965;28;20426;-73
2023/05/10 05:34:45;;;;;;;57.40;32.78;;;;;;;10.66;100.00;100870.31;5083269;28;20033;-73
2023/05/10 05:37:19;;;;;;;61.03;33.38;;;;;;;10.71;100.00;100874.75;5081590;28;20105;-73
2023/05/10 05:39:44;;;;;;;60.63;32.92;;;;;;;10.71;100.00;100864.16;5083006;28;20097;-73
2023/05/10 05:42:10;;;;;;;54.15;31.42;;;;;;;10.75;100.00;100867.72;5082087;28;20028;-73
2023/05/10 05:44:36;;;;;;;56.65;32.92;;;;;;;10.82;100.00;100874.81;5081907;28;20549;-73
2023/05/10 05:47:01;;;;;;;58.17;32.80;;;;;;;10.90;100.00;100867.75;5070024;28;20472;-76
2023/05/10 05:49:27;;;;;;;53.38;30.80;;;;;;;10.89;100.00;100873.03;5072818;28;20078;-74
2023/05/10 05:51:52;;;;;;;53.70;31.58;;;;;;;10.93;100.00;100865.13;5076690;28;20028;-74
2023/05/10 05:54:18;;;;;;;53.78;32.33;;;;;;;10.91;100.00;100872.19;5079662;28;20028;-74
2023/05/10 05:56:44;;;;;;;53.13;31.83;;;;;;;10.99;100.00;100873.09;5081205;28;20070;-72
2023/05/10 05:59:10;;;;;;;52.85;31.20;;;;;;;11.11;100.00;100871.34;5078952;28;20467;-72
2023/05/10 06:01:35;;;;;;;52.00;30.83;;;;;;;11.18;100.00;100873.13;5080166;28;20036;-73
2023/05/10 06:04:01;;;;;;;51.72;32.22;;;;;;;11.25;100.00;100879.34;5077520;28;20044;-76
2023/05/10 06:06:26;;;;;;;50.97;31.55;;;;;;;11.37;100.00;100881.13;5061170;28;20024;-76
2023/05/10 06:08:52;;;;;;;50.15;30.17;;;;;;;11.40;100.00;100892.59;5079243;28;20099;-72
2023/05/10 06:11:17;;;;;;;47.35;28.27;;;;;;;11.35;100.00;100878.47;5080790;28;20035;-75
2023/05/10 06:13:43;;;;;;;48.30;30.20;;;;;;;11.37;100.00;100886.41;5080217;28;20032;-75
2023/05/10 06:16:08;;;;;;;47.33;29.55;;;;;;;11.38;100.00;100894.34;5060075;28;20119;-79
2023/05/10 06:18:34;;;;;;;49.00;30.33;;;;;;;11.38;100.00;100882.88;5061952;28;20043;-76
2023/05/10 06:20:59;;;;;;;48.80;31.38;;;;;;;11.55;100.00;100888.19;5080799;28;20032;-78
2023/05/10 06:23:25;;;;;;;50.53;30.83;;;;;;;11.67;100.00;100888.22;5085169;28;20036;-80
2023/05/10 06:25:51;;;;;;;50.38;31.75;;;;;;;11.79;100.00;100889.97;5080917;28;20029;-71
2023/05/10 06:28:16;;;;;;;50.50;31.70;;;;;;;11.74;100.00;100892.63;5085332;28;20107;-73
2023/05/10 06:30:42;;;;;;;47.75;30.17;;;;;;;11.64;100.00;100891.72;5078164;28;20123;-68
2023/05/10 06:33:07;;;;;;;49.60;31.27;;;;;;;11.61;100.00;100906.75;5079956;28;20032;-69
2023/05/10 06:35:33;;;;;;;50.72;31.30;;;;;;;11.54;100.00;100899.69;5078048;28;20025;-70
2023/05/10 06:37:58;;;;;;;50.17;32.30;;;;;;;11.49;100.00;100900.53;5081947;28;20048;-71
2023/05/10 06:40:24;;;;;;;49.88;31.85;;;;;;;11.47;100.00;100904.94;5078465;28;20056;-70
2023/05/10 06:42:49;;;;;;;51.33;31.90;;;;;;;11.47;100.00;100902.28;5070878;28;20392;-68
2023/05/10 06:45:16;;;;;;;47.85;30.55;;;;;;;11.48;100.00;100908.50;5078973;28;20031;-67
2023/05/10 06:47:41;;;;;;;50.50;32.65;;;;;;;11.51;100.00;100906.72;5079021;28;20102;-67
2023/05/10 06:50:11;;;;;;;49.78;32.20;;;;;;;11.59;100.00;100913.78;5078580;28;20103;-67
2023/05/10 06:52:37;;;;;;;51.47;32.70;;;;;;;11.68;100.00;100913.81;5083668;28;20457;-67
2023/05/10 06:55:04;;;;;;;48.95;32.10;;;;;;;11.68;100.00;100913.81;5079815;28;20483;-67
2023/05/10 06:57:29;;;;;;;49.17;32.58;;;;;;;11.64;100.00;100914.69;5077926;28;20029;-67
2023/05/10 06:59:56;;;;;;;47.50;31.45;;;;;;;11.75;100.00;100909.38;5076788;28;20044;-67
2023/05/10 07:02:22;;;;;;;49.15;31.60;;;;;;;11.80;100.00;100907.63;5081394;28;20032;-67
2023/05/10 07:04:47;;;;;;;48.35;32.05;;;;;;;11.79;100.00;100917.34;5078781;28;20171;-67
2023/05/10 07:07:13;;;;;;;48.63;32.47;;;;;;;11.69;100.00;100913.81;5075540;28;20423;-69
2023/05/10 07:09:39;;;;;;;48.28;31.77;;;;;;;11.68;100.00;100925.28;5076237;28;20120;-69
2023/05/10 07:12:04;;;;;;;49.50;32.38;;;;;;;11.62;100.00;100919.97;5075394;28;20586;-73
2023/05/10 07:14:29;;;;;;;49.55;31.27;;;;;;;11.59;100.00;100927.94;5080282;28;20145;-74
2023/05/10 07:16:55;;;;;;;49.10;31.35;;;;;;;11.58;100.00;100930.56;5078067;28;20029;-72
2023/05/10 07:19:20;;;;;;;50.67;31.23;;;;;;;11.58;100.00;100933.22;5077847;28;20111;-72
2023/05/10 07:21:46;;;;;;;48.17;31.23;;;;;;;11.55;100.00;100933.19;5079462;28;20486;-72
2023/05/10 07:24:11;;;;;;;47.20;29.98;;;;;;;11.55;100.00;100949.06;5078811;28;20036;-72
2023/05/10 07:26:36;;;;;;;46.67;30.20;;;;;;;11.57;100.00;100948.19;5074058;28;20391;-72
2023/05/10 07:29:02;;;;;;;42.63;26.75;;;;;;;11.54;100.00;100937.59;5075177;28;20078;-71
2023/05/10 07:31:28;;;;;;;41.53;27.13;;;;;;;11.51;100.00;100950.84;5073082;28;20035;-69
2023/05/10 07:33:53;;;;;;;42.65;26.05;;;;;;;11.54;100.00;100953.50;5076671;28;20024;-69
2023/05/10 07:36:19;;;;;;;41.55;27.20;;;;;;;11.56;100.00;100945.56;5073862;28;20270;-73
2023/05/10 07:38:44;;;;;;;41.75;26.52;;;;;;;11.55;100.00;100946.44;5076243;28;20084;-74
2023/05/10 07:41:10;;;;;;;42.35;28.20;;;;;;;11.61;100.00;100951.75;5079941;28;20484;-73
2023/05/10 07:43:36;;;;;;;39.63;25.67;;;;;;;11.62;100.00;100940.25;5078380;28;20094;-73
2023/05/10 07:46:01;;;;;;;39.60;26.38;;;;;;;11.62;100.00;100950.84;5077163;28;20032;-73
2023/05/10 07:48:26;;;;;;;39.10;26.48;;;;;;;11.56;100.00;100948.19;5043356;28;20047;-73
2023/05/10 07:50:52;;;;;;;40.13;27.90;;;;;;;11.48;100.00;100948.19;5082795;28;20426;-73
2023/05/10 07:53:18;;;;;;;41.28;28.33;;;;;;;11.58;100.00;100949.97;5075855;28;20406;-73
2023/05/10 07:55:44;;;;;;;39.33;26.38;;;;;;;11.68;100.00;100953.53;5079090;28;20040;-74
2023/05/10 07:58:10;;;;;;;35.15;22.95;;;;;;;11.61;100.00;100957.06;5077630;28;20038;-73
2023/05/10 08:00:35;;;;;;;32.90;21.77;;;;;;;11.62;100.00;100953.50;5074035;28;20116;-72
2023/05/10 08:03:00;;;;;;;32.80;21.15;;;;;;;11.64;100.00;100957.06;5083485;28;20111;-73
2023/05/10 08:05:26;;;;;;;33.92;22.38;;;;;;;11.63;100.00;100966.75;5081743;28;20024;-73
2023/05/10 08:07:51;;;;;;;33.17;21.90;;;;;;;11.70;100.00;100970.28;5084400;28;20060;-72
2023/05/10 08:10:17;;;;;;;31.45;20.00;;;;;;;11.76;100.00;100969.44;5076455;28;20033;-70
2023/05/10 08:12:42;;;;;;;30.80;20.00;;;;;;;11.77;100.00;100976.50;5079587;28;20037;-76
2023/05/10 08:15:08;;;;;;;31.02;20.05;;;;;;;11.85;100.00;100975.63;5079531;28;20167;-68
2023/05/10 08:17:33;;;;;;;31.35;20.15;;;;;;;11.97;100.00;100973.88;5077264;28;20035;-79
2023/05/10 08:19:59;;;;;;;30.05;19.90;;;;;;;12.18;100.00;100973.88;5077878;28;20025;-81
2023/05/10 08:22:24;;;;;;;29.55;19.15;;;;;;;12.44;100.00;100980.94;5076255;28;20111;-73
2023/05/10 08:24:49;;;;;;;30.23;18.90;;;;;;;12.57;100.00;100981.81;5072557;28;20039;-68
2023/05/10 08:27:15;;;;;;;28.92;17.85;;;;;;;12.64;100.00;100982.69;5078811;28;20037;-71
2023/05/10 08:29:40;;;;;;;28.77;17.60;;;;;;;12.56;100.00;100983.56;5075372;28;20028;-67
2023/05/10 08:32:06;;;;;;;26.17;15.90;;;;;;;12.54;100.00;100981.84;5076470;28;20147;-69
2023/05/10 08:34:31;;;;;;;26.65;15.90;;;;;;;12.44;100.00;100988.03;5058732;28;20495;-69
2023/05/10 08:36:56;;;;;;;25.50;15.15;;;;;;;12.29;100.00;100987.16;5078727;28;20032;-67
2023/05/10 08:39:23;;;;;;;25.88;14.40;;;;;;;12.43;100.00;100981.81;5077463;28;20094;-68
2023/05/10 08:41:53;;;;;;;24.70;14.73;;;;;;;12.57;100.00;100989.78;5076627;28;20036;-75
2023/05/10 08:44:20;;;;;;;23.98;13.02;;;;;;;12.52;100.00;100979.19;5069516;28;20047;-77
2023/05/10 08:46:46;;;;;;;24.48;13.50;;;;;;;12.61;100.00;100977.38;5078567;28;20479;-76
2023/05/10 08:49:16;;;;;;;24.45;13.40;;;;;;;12.67;100.00;100988.00;5079161;28;20082;-77
2023/05/10 08:51:46;;;;;;;24.27;12.48;;;;;;;12.55;100.00;100984.47;5072010;28;20103;-77
2023/05/10 08:54:12;;;;;;;24.02;12.13;;;;;;;12.53;100.00;100994.19;5078624;28;20051;-73
2023/05/10 08:56:38;;;;;;;23.15;12.25;;;;;;;12.66;100.00;100994.19;5075163;28;20032;-68
2023/05/10 08:59:04;;;;;;;22.58;12.48;;;;;;;12.87;100.00;100990.59;5079106;28;20128;-67
2023/05/10 09:01:31;;;;;;;22.08;10.93;;;;;;;13.16;100.00;100992.25;5081704;28;20024;-69
2023/05/10 09:03:57;;;;;;;22.92;10.40;;;;;;;13.54;100.00;100985.91;5077367;28;20048;-67
2023/05/10 09:06:23;;;;;;;21.27;10.52;;;;;;;13.88;100.00;100988.38;5075752;28;20379;-68
2023/05/10 09:08:49;;;;;;;21.27;9.60;;;;;;;13.93;100.00;100987.41;5076944;28;20479;-69
2023/05/10 09:11:16;;;;;;;20.80;9.90;;;;;;;14.01;100.00;100987.38;5078207;28;20040;-68
2023/05/10 09:13:42;;;;;;;20.52;9.25;;;;;;;14.09;100.00;100979.34;5058755;28;20112;-67
2023/05/10 09:16:07;;;;;;;20.13;8.00;;;;;;;14.34;100.00;100973.81;5075123;28;20411;-67
2023/05/10 09:18:32;;;;;;;20.02;8.63;;;;;;;14.65;100.00;100971.78;5076386;28;20057;-68
2023/05/10 09:20:58;;;;;;;20.58;8.80;;;;;;;14.98;100.00;100965.22;5076037;28;20035;-69
2023/05/10 09:23:28;;;;;;;20.48;7.93;;;;;;;15.10;100.00;100973.91;5079227;28;20068;-70
2023/05/10 09:26:05;;;;;;;19.67;7.90;;;;;;;15.44;100.00;100978.81;5076927;28;20355;-70
2023/05/10 09:28:32;;;;;;;20.10;8.00;;;;;;;15.68;100.00;100973.16;5076152;28;20039;-68
2023/05/10 09:30:58;;;;;;;19.35;7.40;;;;;;;16.06;100.00;100969.94;5075168;28;20032;-69
2023/05/10 09:33:24;;;;;;;18.80;7.50;;;;;;;16.56;100.00;100973.53;5078998;28;20178;-72
2023/05/10 09:35:52;;;;;;;18.88;7.38;;;;;;;16.57;100.00;100975.25;5077887;28;20133;-70
2023/05/10 09:38:17;;;;;;;17.63;6.80;;;;;;;17.04;100.00;100976.16;5076959;28;20395;-70
2023/05/10 09:40:54;;;;;;;18.17;7.22;;;;;;;16.79;100.00;100974.84;5080120;28;20025;-69
2023/05/10 09:43:20;;;;;;;19.58;7.38;;;;;;;16.65;100.00;100975.13;5081663;28;20060;-67
2023/05/10 09:45:49;;;;;;;18.45;7.82;;;;;;;16.33;100.00;100977.47;5083507;28;20483;-71
2023/05/10 09:48:15;;;;;;;19.77;7.60;;;;;;;16.12;100.00;100978.72;5081215;28;20037;-68
2023/05/10 09:50:41;;;;;;;19.02;7.47;;;;;;;15.90;100.00;100982.63;5083856;28;20035;-68
2023/05/10 09:53:07;;;;;;;18.65;7.47;;;;;;;15.83;100.00;100985.41;5076546;28;20039;-67
2023/05/10 09:55:38;;;;;;;18.02;6.63;;;;;;;15.42;100.00;100986.84;5083164;28;20377;-69
2023/05/10 09:58:06;;;;;;;19.48;7.88;;;;;;;15.07;100.00;100989.94;5080731;28;20025;-70
2023/05/10 10:00:39;;;;;;;17.88;6.45;;;;;;;14.90;100.00;100988.34;5083144;28;20119;-70
2023/05/10 10:03:04;;;;;;;;;;;;;;;14.96;100.00;100987.41;5074050;28;20110;-74
2023/05/10 10:05:31;;;;;;;18.83;7.00;;;;;;;14.79;100.00;100987.59;5072886;28;19951;-71
2023/05/10 10:07:57;;;;;;;19.55;7.53;;;;;;;14.86;100.00;100996.41;5057385;28;20078;-71
2023/05/10 10:10:27;;;;;;;19.38;7.93;;;;;;;15.12;100.00;100990.78;5077794;28;20029;-68
2023/05/10 10:12:53;;;;;;;20.27;7.47;;;;;;;15.46;100.00;100993.88;5075689;28;20028;-68
2023/05/10 10:15:20;;;;;;;19.75;7.60;;;;;;;15.82;100.00;100994.28;5073662;28;20028;-75
2023/05/10 10:17:46;;;;;;;19.60;7.38;;;;;;;15.95;100.00;100997.66;5074729;28;20032;-67
2023/05/10 10:20:12;;;;;;;19.05;7.30;;;;;;;15.79;100.00;100991.66;5078358;28;20036;-77
2023/05/10 10:22:37;;;;;;;18.88;7.53;;;;;;;15.68;100.00;100994.47;5078628;28;20119;-77
2023/05/10 10:25:05;;;;;;;18.35;7.30;;;;;;;15.83;100.00;101000.53;5057903;28;20120;-77
2023/05/10 10:27:53;;;;;;;18.60;7.25;;;;;;;15.82;100.00;100990.75;5075808;28;20038;-77
2023/05/10 10:30:18;;;;;;;18.05;6.68;;;;;;;15.61;100.00;100997.22;5074028;28;20406;-66
2023/05/10 10:33:02;;;;;;;19.50;8.20;;;;;;;15.40;100.00;100998.41;5079267;28;20041;-71
2023/05/10 10:35:29;;;;;;;19.92;8.75;;;;;;;15.21;100.00;101003.09;5079331;28;20485;-67
2023/05/10 10:37:55;;;;;;;19.27;7.40;;;;;;;15.35;100.00;100998.47;5075734;28;20066;-67
2023/05/10 10:40:26;;;;;;;18.67;7.13;;;;;;;15.67;100.00;101000.69;5083878;28;20120;-68
2023/05/10 10:42:51;;;;;;;19.50;7.13;;;;;;;16.23;100.00;100994.53;5086318;28;20032;-67
2023/05/10 10:45:17;;;;;;;18.40;6.70;;;;;;;16.63;100.00;100992.94;5084994;28;20057;-67
2023/05/10 10:47:44;;;;;;;18.58;6.22;;;;;;;16.92;100.00;100989.78;5085128;28;20036;-66
2023/05/10 10:50:12;;;;;;;18.08;6.40;;;;;;;16.94;100.00;100987.94;5085131;28;20028;-68
2023/05/10 10:52:40;;;;;;;18.48;6.30;;;;;;;16.89;100.00;100992.50;5084500;28;20028;-67
2023/05/10 10:55:13;;;;;;;18.05;7.10;;;;;;;16.76;100.00;100994.50;5085935;28;20490;-68
2023/05/10 10:57:46;;;;;;;17.92;7.00;;;;;;;16.95;100.00;100992.38;5084364;28;20043;-69
2023/05/10 11:00:27;;;;;;;19.85;8.50;;;;;;;17.25;100.00;100998.88;5085228;28;20107;-67
2023/05/10 11:03:08;;;;;;;19.40;9.10;;;;;;;17.17;100.00;100991.94;5086424;28;20070;-69